createdAt,value
2022-08-06T00:02:12.506Z,12.6
2022-08-06T00:12:14.279Z,12.5
2022-08-06T00:32:24.110Z,12.5
2022-08-06T00:42:20.492Z,12.3
2022-08-06T00:52:22.356Z,12
2022-08-06T01:02:26.317Z,11.7
2022-08-06T01:12:32.161Z,11.7
2022-08-06T01:22:29.289Z,11.6
2022-08-06T01:32:30.964Z,11.3
2022-08-06T01:42:35.231Z,11.2
2022-08-06T01:52:36.773Z,11
2022-08-06T02:02:37.217Z,11
2022-08-06T02:12:40.221Z,10.9
2022-08-06T02:22:42.205Z,10.8
2022-08-06T02:32:44.182Z,10.7
2022-08-06T02:42:47.095Z,10.6
2022-08-06T02:52:56.658Z,10.5
2022-08-06T03:02:49.964Z,10.6
2022-08-06T03:12:51.820Z,10.6
2022-08-06T03:22:54.024Z,10.6
2022-08-06T03:32:56.588Z,10.5
2022-08-06T03:42:58.363Z,10.3
2022-08-06T03:53:00.340Z,10.3
2022-08-06T04:03:03.202Z,10.3
2022-08-06T04:13:07.652Z,10.2
2022-08-06T04:23:09.303Z,10.1
2022-08-06T04:43:10.611Z,10.3
2022-08-06T05:03:15.060Z,10.6
2022-08-06T05:13:28.386Z,10.9
2022-08-06T05:23:20.580Z,11.2
2022-08-06T05:33:21.793Z,11.7
2022-08-06T05:43:24.370Z,12.1
2022-08-06T05:54:00.921Z,12.4
2022-08-06T06:03:33.219Z,12.8
2022-08-06T06:13:32.289Z,13.1
2022-08-06T06:23:34.063Z,13.9
2022-08-06T06:33:41.325Z,14.4
2022-08-06T06:43:39.728Z,14.8
2022-08-06T06:53:43.305Z,14.7
2022-08-06T07:03:43.559Z,15
2022-08-06T07:13:47.230Z,15.3
2022-08-06T07:24:05.263Z,15.7
2022-08-06T07:43:51.720Z,16.6
2022-08-06T07:53:58.770Z,16.6
2022-08-06T08:03:56.524Z,16.7
2022-08-06T08:13:56.997Z,17
2022-08-06T08:23:59.339Z,17.4
2022-08-06T08:34:01.674Z,18.2
2022-08-06T08:44:04.295Z,18
2022-08-06T08:54:05.543Z,18.8
2022-08-06T09:04:10.016Z,19.7
2022-08-06T09:14:09.977Z,19.3
2022-08-06T09:24:12.417Z,18.7
2022-08-06T09:34:18.543Z,19.6
2022-08-06T09:54:22.404Z,19.5
2022-08-06T10:04:22.323Z,20.4
2022-08-06T10:24:25.725Z,19.8
2022-08-06T10:24:48.630Z,19.7
2022-08-06T10:34:33.647Z,20.8
2022-08-06T10:54:38.024Z,20.9
2022-08-06T11:04:39.892Z,19.9
2022-08-06T11:14:41.862Z,19.8
2022-08-06T11:24:43.663Z,19.5
2022-08-06T11:34:48.594Z,20.9
2022-08-06T11:44:47.579Z,19.9
2022-08-06T11:54:49.959Z,20.4
2022-08-06T12:04:52.158Z,21.2
2022-08-06T12:14:54.690Z,20.8
2022-08-06T12:25:10.384Z,21.3
2022-08-06T13:45:56.057Z,20.8
2022-08-06T18:06:12.330Z,20.3
2022-08-06T18:56:17.405Z,19.5
2022-08-06T20:47:00.584Z,16.5
2022-08-06T20:56:43.596Z,16.3
2022-08-06T21:06:45.391Z,16
2022-08-06T21:16:51.865Z,15.9
2022-08-06T21:26:50.962Z,15.6
2022-08-06T21:36:50.999Z,15.6
2022-08-06T21:46:58.331Z,15.5
2022-08-06T21:56:54.823Z,15.5
2022-08-06T22:06:56.684Z,15.4
2022-08-06T22:16:58.669Z,15.2
2022-08-06T22:27:00.714Z,14.9
2022-08-06T22:37:03.787Z,14.6
2022-08-06T23:07:09.450Z,13.8
2022-08-06T23:17:19.239Z,13.8
2022-08-06T23:27:16.280Z,13.7
2022-08-06T23:37:15.545Z,13.4
2022-08-06T23:47:52.673Z,13.3
2022-08-06T23:57:32.625Z,13.1
